Time;durP1;ratioP1;P1;durP2;ratioP2;P2;SDS_P1;SDS_P2;PMS_P1;PMS_P2;Temp;Humidity;BMP_temperature;BMP_pressure;BME280_temperature;BME280_humidity;BME280_pressure;Samples;Min_cycle;Max_cycle;Signal;HPM_P1;HPM_P2
2023/10/13 00:04:37;;;;;;;7.55;5.60;;;;;;;18.36;98.22;100077.00;10333669;28;20175;-53
2023/10/13 00:09:39;;;;;;;7.93;5.43;;;;;;;18.36;98.70;100079.72;10340382;28;20053;-54
2023/10/13 00:14:41;;;;;;;10.90;6.90;;;;;;;18.34;98.44;100082.53;10333975;28;20155;-53
2023/10/13 00:19:46;;;;;;;16.20;7.90;;;;;;;18.33;98.68;100093.50;10335114;28;20052;-55
2023/10/13 00:24:51;;;;;;;10.23;6.03;;;;;;;18.31;98.17;100090.16;10329641;28;20057;-55
2023/10/13 00:30:33;;;;;;;9.98;6.90;;;;;;;18.33;98.70;100088.97;10335503;28;20069;-54
2023/10/13 00:35:36;;;;;;;7.70;5.95;;;;;;;18.33;98.90;100080.88;10335515;28;20046;-54
2023/10/13 00:45:41;;;;;;;10.20;6.57;;;;;;;18.27;99.11;100083.44;10331416;28;20082;-53
2023/10/13 00:50:47;;;;;;;6.67;5.77;;;;;;;18.31;99.00;100080.22;10330603;28;20789;-53
2023/10/13 00:55:48;;;;;;;7.07;5.05;;;;;;;18.30;99.08;100083.94;10337551;28;20818;-57
2023/10/13 01:00:56;;;;;;;8.38;6.25;;;;;;;18.31;99.20;100082.06;10330967;28;20060;-55
2023/10/13 01:05:58;;;;;;;10.52;6.05;;;;;;;18.33;99.57;100083.59;10333706;28;20262;-55
2023/10/13 01:11:01;;;;;;;7.57;6.68;;;;;;;18.29;99.60;100065.25;10331296;28;20064;-55
2023/10/13 01:16:04;;;;;;;8.10;6.15;;;;;;;18.33;99.38;100048.56;10332778;28;20127;-54
2023/10/13 01:21:07;;;;;;;9.18;6.28;;;;;;;18.34;98.95;100052.91;10328113;28;20068;-54
2023/10/13 01:26:09;;;;;;;11.30;5.80;;;;;;;18.34;99.16;100042.13;10333533;28;20049;-54
2023/10/13 01:31:24;;;;;;;11.80;6.82;;;;;;;18.33;99.05;100035.09;10335406;28;20050;-54
2023/10/13 01:36:27;;;;;;;6.88;5.00;;;;;;;18.31;99.07;100031.72;10338178;28;20049;-54
2023/10/13 01:41:31;;;;;;;7.88;5.70;;;;;;;18.16;99.26;100020.03;10342673;28;20735;-54
2023/10/13 01:46:32;;;;;;;9.63;5.00;;;;;;;18.34;99.71;100047.53;10335972;28;20057;-54
2023/10/13 01:51:34;;;;;;;7.50;5.80;;;;;;;18.33;99.83;100043.16;10341164;28;20111;-53
2023/10/13 01:56:42;;;;;;;11.15;6.50;;;;;;;18.28;99.71;100021.28;10329825;28;20100;-53
2023/10/13 02:01:43;;;;;;;10.55;6.18;;;;;;;18.35;99.95;100021.44;10337367;28;20666;-54
2023/10/13 02:06:45;;;;;;;7.28;5.78;;;;;;;18.21;99.98;99982.66;10335444;28;20116;-54
2023/10/13 02:11:46;;;;;;;11.07;6.47;;;;;;;18.34;99.80;100007.09;10337868;28;20104;-54
2023/10/13 02:16:55;;;;;;;9.88;6.97;;;;;;;18.31;99.32;99996.69;10343157;28;20053;-53
2023/10/13 02:22:01;;;;;;;8.70;6.63;;;;;;;18.28;99.52;100007.81;10339682;28;20333;-54
2023/10/13 02:27:09;;;;;;;11.82;6.50;;;;;;;18.25;99.72;100002.81;10339503;28;20458;-55
2023/10/13 02:32:20;;;;;;;9.80;6.75;;;;;;;18.24;99.15;100001.16;10339864;28;20218;-54
2023/10/13 02:37:22;;;;;;;10.23;5.60;;;;;;;18.24;99.24;99990.38;10335731;28;20564;-54
2023/10/13 02:42:23;;;;;;;10.77;6.75;;;;;;;18.25;99.46;99967.78;10337582;28;20816;-55
2023/10/13 02:47:26;;;;;;;7.65;5.22;;;;;;;18.25;99.78;99956.19;10334043;28;20705;-53
2023/10/13 02:52:33;;;;;;;9.98;5.97;;;;;;;18.26;99.73;99958.69;10344679;28;20073;-53
2023/10/13 02:57:36;;;;;;;7.75;5.32;;;;;;;18.26;99.71;99952.47;10335023;28;20058;-55
2023/10/13 03:02:44;;;;;;;8.50;5.60;;;;;;;18.26;99.94;99947.09;10342160;28;20296;-54
2023/10/13 03:07:46;;;;;;;8.73;5.95;;;;;;;18.26;99.79;99945.22;10338252;28;20126;-54
2023/10/13 03:12:51;;;;;;;7.65;5.35;;;;;;;18.07;100.00;99919.59;10335134;28;20161;-54
2023/10/13 03:17:54;;;;;;;9.35;6.20;;;;;;;18.07;100.00;99906.13;10336295;28;20059;-54
2023/10/13 03:22:56;;;;;;;9.55;6.18;;;;;;;18.25;100.00;99930.06;10338126;28;20515;-53
2023/10/13 03:33:09;;;;;;;6.55;5.57;;;;;;;18.20;100.00;99924.41;10338021;28;20131;-55
2023/10/13 03:38:17;;;;;;;8.52;5.85;;;;;;;18.25;100.00;99940.84;10327947;28;20277;-55
2023/10/13 03:43:21;;;;;;;8.30;6.25;;;;;;;18.24;99.99;99931.09;10349379;28;20057;-53
2023/10/13 03:53:35;;;;;;;8.10;5.78;;;;;;;18.18;99.97;99918.38;10330993;28;20057;-54
2023/10/13 03:58:41;;;;;;;9.45;7.28;;;;;;;18.18;99.45;99910.28;10334000;28;20046;-55
2023/10/13 04:14:55;;;;;;;8.52;6.50;;;;;;;18.18;99.12;99912.97;10335952;28;20259;-55
2023/10/13 04:25:28;;;;;;;11.43;7.35;;;;;;;18.14;98.59;99885.53;10332184;28;20659;-54
2023/10/13 04:30:38;;;;;;;10.07;7.70;;;;;;;18.05;98.20;99875.03;10332859;28;20057;-54
2023/10/13 04:35:47;;;;;;;12.73;6.95;;;;;;;18.08;98.10;99874.69;10336323;28;20046;-55
2023/10/13 04:41:23;;;;;;;9.40;6.97;;;;;;;18.11;98.69;99887.78;10336848;28;20670;-55
2023/10/13 04:46:35;;;;;;;9.85;7.25;;;;;;;18.06;97.29;99891.03;10335200;28;20057;-55
2023/10/13 04:51:58;;;;;;;10.27;6.45;;;;;;;17.98;98.42;99867.66;10330749;28;21265;-55
2023/10/13 06:32:49;;;;;;;12.45;7.40;;;;;;;18.01;94.53;99847.63;10340893;28;20214;-55
2023/10/13 06:37:52;;;;;;;11.27;7.35;;;;;;;18.04;95.18;99835.66;10339137;28;20053;-57
2023/10/13 06:42:58;;;;;;;10.18;7.55;;;;;;;18.09;96.08;99842.19;10335439;28;20863;-56
2023/10/13 06:48:00;;;;;;;9.25;6.60;;;;;;;18.10;94.88;99834.91;10342390;28;20054;-55
2023/10/13 06:53:01;;;;;;;15.13;7.97;;;;;;;18.17;94.15;99850.16;10340310;28;20068;-56
2023/10/13 06:58:06;;;;;;;12.98;8.10;;;;;;;18.24;93.70;99860.22;10335062;28;20371;-56
2023/10/13 07:03:17;;;;;;;12.70;7.32;;;;;;;18.21;93.55;99847.97;10336906;28;20065;-56
2023/10/13 07:08:19;;;;;;;12.27;7.00;;;;;;;18.28;92.37;99851.56;10337343;28;20056;-56
2023/10/13 07:13:22;;;;;;;8.27;6.60;;;;;;;18.31;91.87;99855.75;10341762;28;20054;-56
2023/10/13 07:18:23;;;;;;;11.70;7.53;;;;;;;18.31;90.30;99853.91;10335270;28;20053;-55
2023/10/13 07:23:25;;;;;;;9.00;5.93;;;;;;;18.34;90.26;99848.13;10339063;28;20061;-55
2023/10/13 07:28:26;;;;;;;11.00;7.38;;;;;;;18.36;89.88;99848.81;10338144;28;20151;-57
2023/10/13 07:33:31;;;;;;;11.55;7.45;;;;;;;18.35;90.51;99844.44;10333771;28;20060;-57
2023/10/13 07:38:37;;;;;;;;;;;;;;;18.41;89.09;99848.25;10338940;28;20057;-56
2023/10/13 07:43:39;;;;;;;11.68;6.72;;;;;;;18.38;88.81;99835.97;10338099;28;21282;-55
2023/10/13 07:48:45;;;;;;;12.18;6.82;;;;;;;18.45;87.04;99832.53;10338401;28;20140;-56
2023/10/13 07:53:48;;;;;;;12.48;7.80;;;;;;;18.55;86.62;99833.97;10336412;28;20206;-58
2023/10/13 07:59:00;;;;;;;;;;;;;;;18.62;86.31;99844.81;10337593;28;20084;-56
2023/10/13 08:04:11;;;;;;;11.75;6.53;;;;;;;18.78;84.65;99829.47;10333284;28;19924;-56
2023/10/13 08:09:40;;;;;;;8.27;6.38;;;;;;;18.92;83.14;99825.97;10338852;28;20061;-56
2023/10/13 08:14:43;;;;;;;12.63;7.25;;;;;;;18.99;83.52;99826.03;10332384;28;21036;-55
2023/10/13 08:19:44;;;;;;;9.32;5.72;;;;;;;19.13;84.19;99825.19;10334076;28;20057;-56
2023/10/13 08:50:47;;;;;;;7.70;5.70;;;;;;;20.01;78.62;99776.41;10341727;28;20156;-56
2023/10/13 08:56:02;;;;;;;9.38;5.50;;;;;;;20.12;78.24;99786.66;10339510;28;20499;-58
2023/10/13 09:01:13;;;;;;;9.02;5.90;;;;;;;20.31;78.70;99789.66;10338877;28;20152;-56
2023/10/13 09:06:19;;;;;;;13.30;5.60;;;;;;;20.58;74.22;99773.59;10341164;28;20439;-53
2023/10/13 09:11:26;;;;;;;9.07;5.03;;;;;;;20.45;72.62;99764.41;10341046;28;20050;-54
2023/10/13 09:26:44;;;;;;;9.25;5.25;;;;;;;20.67;73.36;99750.78;10339512;28;20693;-55
2023/10/13 09:31:48;;;;;;;9.10;5.07;;;;;;;20.72;71.13;99748.34;10337988;28;20046;-55
2023/10/13 09:36:55;;;;;;;7.35;5.45;;;;;;;20.65;70.39;99750.13;10341554;28;21320;-58
2023/10/13 09:41:59;;;;;;;7.35;5.47;;;;;;;20.71;70.47;99735.84;10346642;28;20253;-54
2023/10/13 09:47:07;;;;;;;11.95;4.97;;;;;;;20.84;69.43;99754.00;10344126;28;20057;-54
2023/10/13 09:52:18;;;;;;;9.13;4.63;;;;;;;20.66;67.58;99722.09;10334042;28;20143;-56
2023/10/13 09:57:24;;;;;;;11.57;5.68;;;;;;;21.36;65.91;99746.19;10340320;28;20854;-55
2023/10/13 10:02:25;;;;;;;10.40;5.28;;;;;;;22.07;66.85;99736.63;10335599;28;20170;-55
2023/10/13 10:07:28;;;;;;;12.13;4.80;;;;;;;22.21;62.52;99730.09;10336867;28;20511;-54
2023/10/13 10:12:57;;;;;;;9.73;4.43;;;;;;;22.47;60.41;99731.09;10333076;28;20120;-54
2023/10/13 10:17:58;;;;;;;10.75;4.25;;;;;;;22.55;59.81;99733.59;10333418;28;20198;-56
2023/10/13 10:23:00;;;;;;;10.07;4.88;;;;;;;22.45;61.44;99735.91;10320668;28;23085;-55
2023/10/13 10:28:07;;;;;;;10.18;4.75;;;;;;;22.51;60.51;99740.47;10339949;28;20162;-56
2023/10/13 10:33:15;;;;;;;9.93;4.43;;;;;;;22.51;60.01;99731.53;10338062;28;20509;-55
2023/10/13 10:38:24;;;;;;;5.80;4.30;;;;;;;22.59;62.15;99729.41;10340160;28;20049;-56
2023/10/13 10:43:41;;;;;;;7.05;4.20;;;;;;;22.98;60.13;99701.44;10337721;28;20371;-55
2023/10/13 10:48:43;;;;;;;8.20;4.57;;;;;;;23.64;58.34;99700.13;10339155;28;20049;-55
2023/10/13 10:53:45;;;;;;;9.20;5.18;;;;;;;23.37;56.46;99683.22;10345435;28;20561;-56
2023/10/13 10:58:47;;;;;;;8.20;4.80;;;;;;;23.17;57.84;99665.22;10339701;28;20122;-56
2023/10/13 11:04:09;;;;;;;7.25;4.97;;;;;;;23.43;57.30;99677.72;10335222;28;20049;-57
2023/10/13 11:09:53;;;;;;;7.55;4.53;;;;;;;24.40;56.17;99661.94;10337981;28;20045;-57
2023/10/13 11:14:35;;;;;;;8.68;4.75;;;;;;;25.20;53.46;99648.00;10330983;28;20496;-56
2023/10/13 11:19:41;;;;;;;7.90;4.37;;;;;;;25.73;50.40;99639.97;10334185;28;20106;-56
2023/10/13 11:24:43;;;;;;;7.85;4.90;;;;;;;25.98;50.54;99623.34;10342008;28;20506;-56
2023/10/13 11:29:52;;;;;;;7.97;5.38;;;;;;;26.46;50.71;99627.63;10344389;28;20609;-56
2023/10/13 11:34:54;;;;;;;6.22;4.05;;;;;;;26.94;47.60;99621.97;10334248;28;20404;-56
2023/10/13 11:39:56;;;;;;;8.80;4.47;;;;;;;27.19;46.38;99604.34;10327266;28;20181;-56
2023/10/13 11:45:28;;;;;;;7.47;5.13;;;;;;;27.52;46.00;99587.13;10337193;28;20100;-58
2023/10/13 11:50:33;;;;;;;7.40;4.30;;;;;;;27.79;45.35;99579.00;10330649;28;20049;-48
2023/10/13 11:55:35;;;;;;;8.75;4.90;;;;;;;27.18;47.25;99584.38;10338828;28;20054;-48
2023/10/13 12:04:30;;;;;;;9.50;4.22;;;;;;;26.98;46.93;99587.63;10344014;28;20057;-48
2023/10/13 12:11:30;;;;;;;9.93;5.32;;;;;;;27.06;47.59;99565.34;10352470;28;20160;-49
2023/10/13 12:16:34;;;;;;;7.95;5.07;;;;;;;28.21;44.83;99563.94;10351123;28;20064;-48
2023/10/13 12:21:37;;;;;;;8.65;4.20;;;;;;;29.02;43.53;99563.06;10338629;28;20132;-49
2023/10/13 12:26:41;;;;;;;5.45;4.03;;;;;;;27.88;44.58;99549.31;10350396;28;20114;-49
2023/10/13 12:31:50;;;;;;;7.03;4.22;;;;;;;26.93;47.27;99543.84;10343956;28;20148;-51
2023/10/13 12:37:05;;;;;;;6.32;3.72;;;;;;;28.09;45.24;99539.47;10340732;28;20541;-49
2023/10/13 12:52:47;;;;;;;8.45;4.90;;;;;;;26.41;47.23;99521.13;10339142;28;20596;-49
2023/10/13 12:57:49;;;;;;;5.03;4.20;;;;;;;26.02;48.94;99518.22;10340411;28;20693;-49
2023/10/13 13:02:52;;;;;;;6.97;4.35;;;;;;;26.05;49.84;99503.31;10344926;28;20057;-48
2023/10/13 13:07:54;;;;;;;8.43;4.30;;;;;;;25.87;48.81;99510.56;10342791;28;20057;-49
2023/10/13 13:12:56;;;;;;;4.68;4.18;;;;;;;25.99;48.67;99496.91;10347187;28;20045;-49
2023/10/13 13:17:58;;;;;;;8.63;4.53;;;;;;;26.12;47.55;99495.78;10339951;28;20049;-48
2023/10/13 13:23:04;;;;;;;8.45;4.68;;;;;;;29.02;41.84;99493.75;10338593;28;20053;-50
2023/10/13 13:28:05;;;;;;;7.57;4.20;;;;;;;32.12;36.23;99492.84;10337747;28;20727;-50
2023/10/13 13:33:10;;;;;;;4.50;3.17;;;;;;;33.92;33.33;99482.81;10347096;28;20046;-50
2023/10/13 13:38:31;;;;;;;6.55;4.55;;;;;;;31.87;35.95;99472.56;10349201;28;20161;-49
2023/10/13 13:43:40;;;;;;;5.05;4.53;;;;;;;32.81;35.27;99459.81;10349785;28;20064;-57
2023/10/13 13:48:42;;;;;;;7.85;3.83;;;;;;;35.97;29.66;99455.31;10346576;28;20742;-58
2023/10/13 13:53:50;;;;;;;6.50;4.00;;;;;;;37.06;28.82;99451.50;10345175;28;20128;-57
2023/10/13 13:58:55;;;;;;;5.88;3.90;;;;;;;36.68;29.02;99432.50;10347836;28;20049;-56
2023/10/13 14:04:02;;;;;;;4.85;3.40;;;;;;;37.65;28.36;99428.97;10351989;28;20048;-57
2023/10/13 14:09:15;;;;;;;7.30;3.80;;;;;;;38.46;25.60;99418.34;10351560;28;20095;-57
2023/10/13 14:19:28;;;;;;;4.20;3.63;;;;;;;35.85;29.54;99415.16;10346309;28;20992;-56
2023/10/13 14:24:33;;;;;;;7.38;4.03;;;;;;;37.88;27.42;99398.28;10340778;28;21147;-58
2023/10/13 14:29:40;;;;;;;5.65;4.10;;;;;;;38.42;25.20;99389.59;10344778;28;20164;-58
2023/10/13 14:34:42;;;;;;;6.50;3.85;;;;;;;35.52;26.46;99364.69;10349282;28;20139;-55
2023/10/13 14:39:44;;;;;;;9.27;4.18;;;;;;;34.36;27.25;99360.06;10345973;28;20053;-56
2023/10/13 14:44:50;;;;;;;7.18;3.70;;;;;;;32.42;30.50;99360.44;10341370;28;20152;-56
2023/10/13 14:49:54;;;;;;;7.10;3.88;;;;;;;30.41;31.83;99352.41;10347235;28;20674;-58
2023/10/13 14:54:56;;;;;;;6.25;3.90;;;;;;;29.45;33.79;99357.50;10340200;28;20057;-55
2023/10/13 14:59:58;;;;;;;7.50;4.13;;;;;;;28.73;35.79;99357.19;10341445;28;20202;-55
2023/10/13 15:05:02;;;;;;;7.00;3.75;;;;;;;28.28;36.84;99350.31;10339413;28;20086;-55
2023/10/13 15:10:04;;;;;;;6.97;3.28;;;;;;;27.86;36.53;99339.03;10336154;28;20095;-55
2023/10/13 15:15:13;;;;;;;4.53;3.42;;;;;;;27.59;37.09;99333.56;10340501;28;20137;-54
2023/10/13 15:20:17;;;;;;;6.80;3.80;;;;;;;27.20;37.02;99327.38;10333215;28;24333;-54
2023/10/13 15:25:28;;;;;;;6.35;3.55;;;;;;;26.88;38.21;99318.00;10342043;28;20159;-55
2023/10/13 15:30:44;;;;;;;6.28;3.25;;;;;;;26.72;38.14;99308.81;10334410;28;20084;-55
2023/10/13 15:35:46;;;;;;;9.00;4.47;;;;;;;26.59;38.25;99303.69;10336274;28;20446;-55
2023/10/13 15:40:54;;;;;;;7.72;3.22;;;;;;;26.30;38.49;99279.25;10337313;28;20041;-55
2023/10/13 15:45:59;;;;;;;6.80;3.78;;;;;;;26.20;38.49;99269.03;10338833;28;20064;-56
2023/10/13 15:51:21;;;;;;;8.25;4.00;;;;;;;26.09;37.46;99272.66;10340608;28;20678;-53
2023/10/13 15:56:22;;;;;;;5.47;3.10;;;;;;;26.00;39.00;99255.94;10337187;28;20062;-55
2023/10/13 16:01:24;;;;;;;4.85;3.33;;;;;;;25.77;39.00;99245.97;10337076;28;20073;-55
2023/10/13 16:06:26;;;;;;;8.35;4.20;;;;;;;25.85;39.31;99274.72;10341448;28;20046;-56
2023/10/13 16:11:27;;;;;;;5.90;3.88;;;;;;;25.76;40.31;99264.25;10336636;28;20177;-59
2023/10/13 16:16:28;;;;;;;10.00;4.75;;;;;;;25.61;39.96;99272.13;10337893;28;20065;-56
2023/10/13 16:21:30;;;;;;;9.13;4.10;;;;;;;25.52;40.65;99265.44;10340856;28;20067;-55
2023/10/13 16:26:32;;;;;;;9.13;4.50;;;;;;;25.45;41.09;99262.91;10332620;28;20247;-60
2023/10/13 16:31:34;;;;;;;12.20;5.63;;;;;;;25.38;41.06;99268.47;10339232;28;21958;-54
2023/10/13 16:36:35;;;;;;;7.00;4.40;;;;;;;25.31;40.79;99267.84;10334500;28;20200;-54
2023/10/13 16:41:37;;;;;;;6.88;4.68;;;;;;;25.26;41.46;99261.44;10331665;28;20057;-54
2023/10/13 16:46:40;;;;;;;10.95;6.43;;;;;;;25.20;41.31;99257.78;10335662;28;20238;-54
2023/10/13 16:51:41;;;;;;;8.65;4.78;;;;;;;25.10;41.44;99260.31;10335398;28;20124;-58
2023/10/13 16:56:43;;;;;;;8.50;6.00;;;;;;;25.01;41.86;99257.97;10341901;28;20468;-55
2023/10/13 17:01:45;;;;;;;9.15;4.70;;;;;;;24.97;41.85;99256.81;10347198;28;20513;-55
2023/10/13 17:06:47;;;;;;;11.07;6.63;;;;;;;24.91;42.67;99244.16;10354535;28;20144;-55
2023/10/13 17:11:49;;;;;;;10.50;6.68;;;;;;;24.73;42.58;99214.44;10351643;28;20057;-55
2023/10/13 17:16:50;;;;;;;9.00;6.40;;;;;;;24.76;43.90;99222.09;10349108;28;20128;-55
2023/10/13 17:21:52;;;;;;;7.80;5.82;;;;;;;24.66;43.62;99207.22;10348073;28;20056;-53
2023/10/13 17:26:54;;;;;;;10.32;4.97;;;;;;;24.58;43.94;99199.44;10347210;28;20041;-55
2023/10/13 17:31:55;;;;;;;8.45;5.60;;;;;;;24.60;44.76;99208.19;10347236;28;20207;-57
2023/10/13 17:36:58;;;;;;;10.00;5.35;;;;;;;24.55;44.65;99209.97;10339974;28;20059;-55
2023/10/13 17:42:01;;;;;;;7.70;4.83;;;;;;;24.47;44.97;99205.69;10346354;28;20459;-56
2023/10/13 17:47:02;;;;;;;8.73;5.00;;;;;;;24.42;45.67;99206.41;10344426;28;20071;-56
2023/10/13 17:52:04;;;;;;;8.88;4.85;;;;;;;24.31;46.51;99199.13;10345520;28;20554;-55
2023/10/13 17:57:06;;;;;;;9.57;5.20;;;;;;;24.25;47.26;99195.47;10348796;28;20412;-55
2023/10/13 18:02:09;;;;;;;11.10;6.57;;;;;;;24.18;48.11;99183.88;10344319;28;20053;-54
2023/10/13 18:07:11;;;;;;;;;;;;;;;24.09;48.40;99196.19;10348738;28;20045;-56
2023/10/13 18:12:13;;;;;;;11.93;6.20;;;;;;;24.03;48.20;99186.28;10346337;28;19924;-55
2023/10/13 18:17:15;;;;;;;11.73;6.40;;;;;;;23.96;48.40;99187.22;10348431;28;20085;-55
2023/10/13 18:22:17;;;;;;;14.07;7.53;;;;;;;23.93;49.08;99187.72;10349951;28;20145;-56
2023/10/13 18:27:19;;;;;;;9.23;6.72;;;;;;;23.87;48.52;99172.34;10361220;28;20053;-55
2023/10/13 18:32:20;;;;;;;12.00;6.65;;;;;;;23.81;47.27;99167.84;10349118;28;20141;-56
2023/10/13 18:37:21;;;;;;;11.45;6.45;;;;;;;23.76;47.27;99167.72;10349646;28;20112;-56
2023/10/13 18:42:23;;;;;;;9.30;5.65;;;;;;;23.69;46.58;99153.41;10352482;28;20050;-56
2023/10/13 18:47:24;;;;;;;9.68;5.80;;;;;;;23.63;46.07;99156.03;10347456;28;20073;-54
2023/10/13 18:52:26;;;;;;;11.77;6.25;;;;;;;23.59;46.22;99143.97;10349688;28;20140;-56
2023/10/13 18:57:27;;;;;;;8.82;4.93;;;;;;;23.50;45.60;99131.81;10351375;28;20691;-56
2023/10/13 19:02:29;;;;;;;11.60;5.18;;;;;;;23.47;45.82;99135.00;10346935;28;20060;-56
2023/10/13 19:07:31;;;;;;;9.48;4.55;;;;;;;23.41;45.52;99149.50;10351491;28;20072;-56
2023/10/13 19:12:34;;;;;;;10.63;5.22;;;;;;;23.40;45.90;99145.13;10348964;28;20060;-56
2023/10/13 19:17:36;;;;;;;10.80;4.80;;;;;;;23.36;46.01;99138.50;10348348;28;20555;-56
2023/10/13 19:22:40;;;;;;;6.20;4.20;;;;;;;23.35;45.99;99143.13;10342785;28;20053;-54
2023/10/13 19:27:42;;;;;;;8.05;4.60;;;;;;;23.28;45.34;99142.41;10352751;28;20151;-56
2023/10/13 19:32:44;;;;;;;7.70;4.13;;;;;;;23.10;45.20;99108.03;10351129;28;20503;-57
2023/10/13 19:37:46;;;;;;;8.68;4.18;;;;;;;23.19;44.54;99136.47;10354959;28;20912;-54
2023/10/13 19:42:48;;;;;;;7.30;4.15;;;;;;;23.15;45.25;99132.59;10348441;28;20052;-56
2023/10/13 19:47:49;;;;;;;8.82;4.75;;;;;;;23.07;45.63;99138.31;10367804;28;20055;-56
2023/10/13 19:52:51;;;;;;;6.10;4.32;;;;;;;23.04;45.93;99136.06;10348174;28;20057;-56
2023/10/13 19:57:53;;;;;;;5.87;3.63;;;;;;;23.00;46.17;99135.72;10351015;28;20049;-53
2023/10/13 20:02:54;;;;;;;9.38;4.35;;;;;;;22.95;45.47;99141.00;10349678;28;20349;-55
2023/10/13 20:07:56;;;;;;;7.57;4.13;;;;;;;22.94;46.13;99142.91;10343242;28;20049;-54
2023/10/13 20:13:01;;;;;;;6.63;4.03;;;;;;;22.83;46.10;99135.53;10349472;28;20086;-55
2023/10/13 20:18:08;;;;;;;8.05;4.07;;;;;;;22.87;46.08;99139.44;10347729;28;20698;-55
2023/10/13 20:23:15;;;;;;;5.75;4.07;;;;;;;22.78;46.43;99143.56;10341636;28;20049;-55
2023/10/13 20:28:17;;;;;;;7.35;4.53;;;;;;;22.74;46.45;99136.94;10340056;28;20057;-56
2023/10/13 20:33:23;;;;;;;8.13;3.80;;;;;;;22.71;46.16;99142.81;10340586;28;20135;-55
2023/10/13 20:38:24;;;;;;;8.82;4.03;;;;;;;22.53;46.13;99125.53;10345887;28;20053;-55
2023/10/13 20:43:28;;;;;;;10.18;4.68;;;;;;;22.55;46.46;99123.44;10345781;28;20241;-56
2023/10/13 20:48:31;;;;;;;6.20;4.15;;;;;;;22.55;46.28;99134.28;10334385;28;20687;-54
2023/10/13 20:53:33;;;;;;;7.78;3.63;;;;;;;22.50;46.52;99119.75;10338713;28;20058;-55
2023/10/13 20:58:40;;;;;;;7.68;3.88;;;;;;;22.52;46.05;99128.47;10339165;28;20060;-56
2023/10/13 21:03:43;;;;;;;8.77;3.70;;;;;;;22.49;46.58;99135.19;10340881;28;20046;-55
2023/10/13 21:08:46;;;;;;;7.57;3.35;;;;;;;22.46;45.95;99127.50;10338825;28;20046;-55
2023/10/13 21:13:47;;;;;;;6.45;3.40;;;;;;;22.42;45.70;99127.13;10335656;28;21530;-56
2023/10/13 21:18:52;;;;;;;6.95;3.22;;;;;;;22.38;45.81;99135.94;10337865;28;20644;-55
2023/10/13 21:23:54;;;;;;;5.40;3.03;;;;;;;22.37;45.62;99132.41;10338254;28;20200;-54
2023/10/13 21:28:56;;;;;;;7.82;3.88;;;;;;;22.33;45.14;99130.41;10331312;28;20049;-54
2023/10/13 21:33:58;;;;;;;5.38;4.00;;;;;;;22.28;45.15;99136.47;10342400;28;20049;-54
2023/10/13 21:39:00;;;;;;;5.40;3.40;;;;;;;22.29;45.75;99127.25;10333155;28;20097;-54
2023/10/13 21:44:03;;;;;;;5.95;4.07;;;;;;;22.29;45.58;99129.16;10338759;28;20101;-57
2023/10/13 21:49:04;;;;;;;4.93;3.40;;;;;;;22.30;45.82;99128.94;10341856;28;20061;-55
2023/10/13 21:54:07;;;;;;;8.35;3.35;;;;;;;22.23;45.63;99141.72;10337244;28;20153;-56
2023/10/13 21:59:10;;;;;;;8.43;3.63;;;;;;;22.21;47.04;99150.09;10342971;28;20074;-56
2023/10/13 22:04:20;;;;;;;6.03;3.58;;;;;;;22.18;47.80;99160.56;10340656;28;20178;-55
2023/10/13 22:09:22;;;;;;;5.90;3.42;;;;;;;22.16;48.35;99151.81;10337417;28;20052;-56
2023/10/13 22:14:24;;;;;;;9.00;3.83;;;;;;;22.18;48.22;99150.53;10337112;28;20128;-55
2023/10/13 22:19:29;;;;;;;6.68;2.95;;;;;;;22.17;48.64;99148.91;10341642;28;20168;-56
2023/10/13 22:24:33;;;;;;;4.03;2.72;;;;;;;22.18;49.01;99128.03;10335974;28;20708;-57
2023/10/13 22:29:35;;;;;;;5.05;2.80;;;;;;;22.19;49.43;99125.09;10341266;28;20058;-56
2023/10/13 22:34:36;;;;;;;8.18;3.58;;;;;;;22.10;49.81;99101.22;10334386;28;20092;-54
2023/10/13 22:39:37;;;;;;;4.68;3.22;;;;;;;22.17;50.35;99116.38;10336641;28;20134;-54
2023/10/13 22:44:40;;;;;;;4.65;3.50;;;;;;;22.10;50.28;99104.78;10340907;28;20084;-55
2023/10/13 22:49:41;;;;;;;4.72;3.38;;;;;;;22.18;50.34;99112.59;10336343;28;20133;-56
2023/10/13 22:54:44;;;;;;;6.35;4.15;;;;;;;22.17;50.87;99099.28;10341008;28;20068;-54
2023/10/13 22:59:46;;;;;;;8.75;3.78;;;;;;;22.15;50.94;99096.78;10339587;28;20159;-55
2023/10/13 23:04:51;;;;;;;7.07;3.92;;;;;;;22.12;51.48;99091.84;10337835;28;20073;-55
2023/10/13 23:09:52;;;;;;;5.30;3.63;;;;;;;22.10;51.70;99076.84;10342740;28;20054;-54
2023/10/13 23:14:54;;;;;;;12.57;4.03;;;;;;;22.08;51.86;99074.38;10367435;28;20132;-54
2023/10/13 23:19:55;;;;;;;8.90;4.10;;;;;;;22.11;51.69;99070.38;10352830;28;20108;-55
2023/10/13 23:24:57;;;;;;;7.35;3.80;;;;;;;22.09;52.03;99065.19;10346101;28;20512;-55
2023/10/13 23:29:58;;;;;;;5.65;4.07;;;;;;;22.08;52.57;99063.53;10335397;28;20065;-55
2023/10/13 23:35:00;;;;;;;5.78;3.58;;;;;;;22.05;52.66;99058.56;10339228;28;20049;-55
2023/10/13 23:40:11;;;;;;;8.68;3.58;;;;;;;22.05;52.52;99050.44;10325437;28;20055;-55
2023/10/13 23:45:18;;;;;;;6.63;3.85;;;;;;;22.05;53.07;99059.41;10338689;28;20539;-54
2023/10/13 23:50:27;;;;;;;8.90;4.03;;;;;;;21.96;52.88;99032.84;10337353;28;20582;-55
2023/10/13 23:55:32;;;;;;;5.75;4.05;;;;;;;22.05;53.22;99053.16;10339379;28;20040;-54
